createdAt,value
2023-01-20T00:01:15.206Z,100.00
2023-01-20T00:03:43.246Z,100.00
2023-01-20T00:06:10.596Z,100.00
2023-01-20T00:08:37.520Z,100.00
2023-01-20T00:11:05.848Z,100.00
2023-01-20T00:13:33.590Z,100.00
2023-01-20T00:16:02.772Z,100.00
2023-01-20T00:18:30.434Z,100.00
2023-01-20T00:20:57.679Z,100.00
2023-01-20T00:23:26.913Z,100.00
2023-01-20T00:25:53.856Z,100.00
2023-01-20T00:28:21.225Z,100.00
2023-01-20T00:30:49.440Z,100.00
2023-01-20T00:33:16.699Z,100.00
2023-01-20T00:35:43.713Z,100.00
2023-01-20T00:38:11.141Z,100.00
2023-01-20T00:40:38.042Z,100.00
2023-01-20T00:43:05.029Z,100.00
2023-01-20T00:45:31.992Z,100.00
2023-01-20T00:47:59.972Z,100.00
2023-01-20T00:50:27.346Z,100.00
2023-01-20T00:52:54.326Z,100.00
2023-01-20T00:55:23.799Z,100.00
2023-01-20T00:57:50.829Z,100.00
2023-01-20T01:00:18.778Z,100.00
2023-01-20T01:02:45.747Z,100.00
2023-01-20T01:05:12.820Z,100.00
2023-01-20T01:07:40.098Z,100.00
2023-01-20T01:10:07.639Z,100.00
2023-01-20T01:12:35.003Z,100.00
2023-01-20T01:15:01.963Z,100.00
2023-01-20T01:17:28.923Z,100.00
2023-01-20T01:19:56.388Z,100.00
2023-01-20T01:22:23.819Z,100.00
2023-01-20T01:24:52.247Z,100.00
2023-01-20T01:27:19.228Z,100.00
2023-01-20T01:29:46.124Z,100.00
2023-01-20T01:32:14.195Z,100.00
2023-01-20T01:34:41.620Z,100.00
2023-01-20T01:37:09.063Z,100.00
2023-01-20T01:39:37.017Z,100.00
2023-01-20T01:42:15.620Z,100.00
2023-01-20T01:45:01.404Z,100.00
2023-01-20T01:47:28.625Z,100.00
2023-01-20T01:49:56.005Z,100.00
2023-01-20T01:52:25.406Z,100.00
2023-01-20T01:54:53.654Z,100.00
2023-01-20T01:57:21.093Z,100.00
2023-01-20T01:59:48.430Z,100.00
2023-01-20T02:02:15.335Z,100.00
2023-01-20T02:04:44.453Z,100.00
2023-01-20T02:07:16.101Z,100.00
2023-01-20T02:09:43.404Z,100.00
2023-01-20T02:12:12.903Z,100.00
2023-01-20T02:14:46.274Z,100.00
2023-01-20T02:17:13.393Z,100.00
2023-01-20T02:19:55.820Z,100.00
2023-01-20T02:22:27.503Z,100.00
2023-01-20T02:25:06.152Z,100.00
2023-01-20T02:27:45.190Z,100.00
2023-01-20T02:30:30.423Z,100.00
2023-01-20T02:33:05.404Z,100.00
2023-01-20T02:36:02.094Z,100.00
2023-01-20T02:38:41.122Z,100.00
2023-01-20T02:41:28.224Z,100.00
2023-01-20T02:43:56.490Z,100.00
2023-01-20T02:46:48.440Z,100.00
2023-01-20T02:49:39.864Z,100.00
2023-01-20T02:52:20.429Z,100.00
2023-01-20T02:54:49.748Z,100.00
2023-01-20T02:57:22.207Z,100.00
2023-01-20T02:59:52.426Z,100.00
2023-01-20T03:02:23.217Z,100.00
2023-01-20T03:04:52.529Z,100.00
2023-01-20T03:07:29.319Z,100.00
2023-01-20T03:09:58.989Z,100.00
2023-01-20T03:12:52.453Z,100.00
2023-01-20T03:15:22.932Z,100.00
2023-01-20T03:17:50.395Z,100.00
2023-01-20T03:20:17.929Z,100.00
2023-01-20T03:22:45.202Z,100.00
2023-01-20T03:25:14.213Z,100.00
2023-01-20T03:27:41.875Z,100.00
2023-01-20T03:30:16.184Z,100.00
2023-01-20T03:32:44.873Z,100.00
2023-01-20T03:35:13.622Z,100.00
2023-01-20T03:37:41.263Z,100.00
2023-01-20T03:40:08.830Z,100.00
2023-01-20T03:42:42.078Z,100.00
2023-01-20T03:45:25.807Z,100.00
2023-01-20T03:48:00.658Z,100.00
2023-01-20T03:50:51.944Z,100.00
2023-01-20T03:53:37.795Z,100.00
2023-01-20T03:56:05.253Z,100.00
2023-01-20T03:58:38.049Z,100.00
2023-01-20T04:01:18.153Z,100.00
2023-01-20T04:03:47.621Z,100.00
2023-01-20T04:06:16.647Z,100.00
2023-01-20T04:08:56.922Z,100.00
2023-01-20T04:11:24.422Z,100.00
2023-01-20T04:13:51.821Z,100.00
2023-01-20T04:16:20.360Z,100.00
2023-01-20T04:18:49.965Z,100.00
2023-01-20T04:21:23.872Z,100.00
2023-01-20T04:24:11.857Z,100.00
2023-01-20T04:26:39.230Z,100.00
2023-01-20T04:29:13.068Z,100.00
2023-01-20T04:31:40.408Z,100.00
2023-01-20T04:34:08.305Z,100.00
2023-01-20T04:36:35.192Z,100.00
2023-01-20T04:39:02.207Z,100.00
2023-01-20T04:41:30.106Z,100.00
2023-01-20T04:43:57.103Z,100.00
2023-01-20T04:46:24.022Z,100.00
2023-01-20T04:48:51.003Z,100.00
2023-01-20T04:51:17.878Z,100.00
2023-01-20T04:53:44.855Z,100.00
2023-01-20T04:56:17.944Z,100.00
2023-01-20T04:58:45.058Z,100.00
2023-01-20T05:01:12.381Z,100.00
2023-01-20T05:03:39.874Z,100.00
2023-01-20T05:06:07.276Z,100.00
2023-01-20T05:08:35.733Z,100.00
2023-01-20T05:11:02.943Z,100.00
2023-01-20T05:13:31.188Z,100.00
2023-01-20T05:16:01.862Z,100.00
2023-01-20T05:18:31.122Z,100.00
2023-01-20T05:20:59.196Z,100.00
2023-01-20T05:23:26.182Z,100.00
2023-01-20T05:25:53.764Z,100.00
2023-01-20T05:28:20.997Z,100.00
2023-01-20T05:30:48.817Z,100.00
2023-01-20T05:33:15.901Z,100.00
2023-01-20T05:35:43.904Z,100.00
2023-01-20T05:38:16.935Z,100.00
2023-01-20T05:40:43.958Z,100.00
2023-01-20T05:43:12.936Z,100.00
2023-01-20T05:45:47.048Z,100.00
2023-01-20T05:48:14.100Z,100.00
2023-01-20T05:50:41.061Z,100.00
2023-01-20T05:53:07.912Z,100.00
2023-01-20T05:55:34.956Z,100.00
2023-01-20T05:58:09.062Z,100.00
2023-01-20T06:00:36.077Z,100.00
2023-01-20T06:03:03.681Z,100.00
2023-01-20T06:05:31.039Z,100.00
2023-01-20T06:07:58.705Z,100.00
2023-01-20T06:10:28.297Z,100.00
2023-01-20T06:12:57.683Z,100.00
2023-01-20T06:15:25.015Z,100.00
2023-01-20T06:17:53.048Z,100.00
2023-01-20T06:20:22.301Z,100.00
2023-01-20T06:22:56.212Z,100.00
2023-01-20T06:25:23.466Z,100.00
2023-01-20T06:27:50.763Z,100.00
2023-01-20T06:30:17.869Z,100.00
2023-01-20T06:32:47.347Z,100.00
2023-01-20T06:35:15.107Z,100.00
2023-01-20T06:37:42.768Z,100.00
2023-01-20T06:40:11.414Z,100.00
2023-01-20T06:42:38.667Z,100.00
2023-01-20T06:45:06.246Z,100.00
2023-01-20T06:47:33.133Z,100.00
2023-01-20T06:50:00.523Z,100.00
2023-01-20T06:52:27.561Z,100.00
2023-01-20T06:54:54.527Z,100.00
2023-01-20T06:57:21.859Z,100.00
2023-01-20T06:59:50.330Z,100.00
2023-01-20T07:02:17.395Z,100.00
2023-01-20T07:04:46.235Z,100.00
2023-01-20T07:07:14.751Z,100.00
2023-01-20T07:09:41.638Z,100.00
2023-01-20T07:12:08.617Z,100.00
2023-01-20T07:14:35.594Z,100.00
2023-01-20T07:17:03.714Z,100.00
2023-01-20T07:19:31.000Z,100.00
2023-01-20T07:22:04.116Z,100.00
2023-01-20T07:24:32.573Z,100.00
2023-01-20T07:26:59.533Z,100.00
2023-01-20T07:29:27.193Z,100.00
2023-01-20T07:31:54.556Z,100.00
2023-01-20T07:34:21.914Z,100.00
2023-01-20T07:36:48.832Z,100.00
2023-01-20T07:39:19.170Z,100.00
2023-01-20T07:41:51.047Z,100.00
2023-01-20T07:44:18.350Z,100.00
2023-01-20T07:46:45.471Z,100.00
2023-01-20T07:49:13.786Z,100.00
2023-01-20T07:51:40.767Z,100.00
2023-01-20T07:54:10.844Z,100.00
2023-01-20T07:56:39.261Z,100.00
2023-01-20T07:59:10.724Z,100.00
2023-01-20T08:01:37.929Z,100.00
2023-01-20T08:04:05.244Z,100.00
2023-01-20T08:06:32.717Z,100.00
2023-01-20T08:09:03.009Z,100.00
2023-01-20T08:11:34.755Z,100.00
2023-01-20T08:14:03.186Z,100.00
2023-01-20T08:16:30.219Z,100.00
2023-01-20T08:18:57.208Z,100.00
2023-01-20T08:21:26.990Z,100.00
2023-01-20T08:23:57.739Z,100.00
2023-01-20T08:26:28.571Z,100.00
2023-01-20T08:29:01.548Z,100.00
2023-01-20T08:31:28.783Z,100.00
2023-01-20T08:33:56.614Z,100.00
2023-01-20T08:36:31.437Z,100.00
2023-01-20T08:38:59.671Z,100.00
2023-01-20T08:41:28.644Z,100.00
2023-01-20T08:43:56.120Z,100.00
2023-01-20T08:46:29.399Z,100.00
2023-01-20T08:48:56.646Z,100.00
2023-01-20T08:51:31.231Z,100.00
2023-01-20T08:53:59.760Z,100.00
2023-01-20T08:56:26.965Z,100.00
2023-01-20T08:58:54.314Z,100.00
2023-01-20T09:01:22.577Z,100.00
2023-01-20T09:04:06.548Z,100.00
2023-01-20T09:06:39.448Z,99.31
2023-01-20T09:09:07.655Z,98.84
2023-01-20T09:11:34.679Z,98.11
2023-01-20T09:14:02.181Z,97.61
2023-01-20T09:16:29.718Z,97.04
2023-01-20T09:18:56.735Z,96.22
2023-01-20T09:21:24.066Z,95.29
2023-01-20T09:23:51.047Z,94.22
2023-01-20T09:26:34.180Z,93.54
2023-01-20T09:29:09.948Z,92.77
2023-01-20T09:31:38.968Z,91.67
2023-01-20T09:34:08.192Z,90.77
2023-01-20T09:36:36.357Z,89.78
2023-01-20T09:39:21.937Z,88.62
2023-01-20T09:42:08.134Z,86.90
2023-01-20T09:44:49.940Z,84.34
2023-01-20T09:47:19.914Z,82.04
2023-01-20T09:50:20.632Z,80.80
2023-01-20T09:53:05.754Z,79.13
2023-01-20T09:55:59.376Z,76.00
2023-01-20T09:58:26.530Z,73.11
2023-01-20T10:00:57.379Z,70.34
2023-01-20T10:03:37.818Z,69.37
2023-01-20T10:06:10.289Z,68.33
2023-01-20T10:08:55.811Z,66.84
2023-01-20T10:11:33.943Z,65.68
2023-01-20T10:14:09.775Z,64.55
2023-01-20T10:16:40.573Z,65.18
2023-01-20T10:19:22.493Z,65.50
2023-01-20T10:21:55.155Z,65.53
2023-01-20T10:24:53.336Z,64.66
2023-01-20T10:27:20.359Z,65.33
2023-01-20T10:30:08.208Z,65.72
2023-01-20T10:32:37.561Z,65.44
2023-01-20T10:35:30.034Z,65.35
2023-01-20T10:37:59.430Z,64.66
2023-01-20T10:40:30.115Z,63.97
2023-01-20T10:42:58.924Z,63.80
2023-01-20T10:45:46.726Z,63.50
2023-01-20T10:48:30.885Z,63.57
2023-01-20T10:51:13.360Z,64.19
2023-01-20T10:53:49.107Z,64.53
2023-01-20T10:56:28.241Z,64.69
2023-01-20T10:58:55.824Z,63.07
2023-01-20T11:01:24.254Z,61.68
2023-01-20T11:03:51.569Z,61.04
2023-01-20T11:06:22.273Z,60.65
2023-01-20T11:08:53.462Z,61.13
2023-01-20T11:11:24.651Z,60.42
2023-01-20T11:13:52.535Z,60.64
2023-01-20T11:16:27.121Z,60.20
2023-01-20T11:18:58.735Z,59.69
2023-01-20T11:21:29.255Z,60.12
2023-01-20T11:23:57.117Z,60.31
2023-01-20T11:26:30.441Z,60.76
2023-01-20T11:29:00.386Z,61.04
2023-01-20T11:31:42.618Z,61.19
2023-01-20T11:34:19.999Z,60.99
2023-01-20T11:36:48.877Z,60.67
2023-01-20T11:39:26.996Z,60.13
2023-01-20T11:42:24.319Z,59.77
2023-01-20T11:44:56.093Z,59.65
2023-01-20T11:47:27.329Z,58.20
2023-01-20T11:50:20.698Z,57.38
2023-01-20T11:52:47.861Z,58.62
2023-01-20T11:55:20.255Z,59.19
2023-01-20T11:58:17.988Z,59.97
2023-01-20T12:00:46.412Z,59.81
2023-01-20T12:03:40.509Z,60.18
2023-01-20T12:06:17.758Z,59.74
2023-01-20T12:08:58.267Z,60.17
2023-01-20T12:11:28.624Z,58.86
2023-01-20T12:14:20.329Z,57.79
2023-01-20T12:17:12.543Z,57.79
2023-01-20T12:19:58.108Z,58.06
2023-01-20T12:22:28.818Z,58.10
2023-01-20T12:25:10.632Z,58.92
2023-01-20T12:27:49.460Z,58.85
2023-01-20T12:30:23.088Z,58.34
2023-01-20T12:32:51.316Z,58.16
2023-01-20T12:35:23.487Z,57.25
2023-01-20T12:37:53.820Z,57.31
2023-01-20T12:40:28.695Z,57.24
2023-01-20T12:43:14.715Z,57.71
2023-01-20T12:45:49.253Z,58.94
2023-01-20T12:48:37.176Z,57.16
2023-01-20T12:51:18.627Z,57.06
2023-01-20T12:54:25.930Z,56.95
2023-01-20T12:56:57.029Z,57.39
2023-01-20T12:59:24.086Z,58.52
2023-01-20T13:02:03.524Z,57.35
2023-01-20T13:04:43.221Z,57.77
2023-01-20T13:07:28.750Z,58.38
2023-01-20T13:09:55.840Z,59.64
2023-01-20T13:12:22.738Z,60.17
2023-01-20T13:14:54.542Z,60.49
2023-01-20T13:17:40.084Z,61.02
2023-01-20T13:20:15.273Z,62.38
2023-01-20T13:22:42.636Z,63.68
2023-01-20T13:25:14.635Z,64.96
2023-01-20T13:27:44.179Z,66.11
2023-01-20T13:30:31.508Z,68.17
2023-01-20T13:33:08.724Z,69.94
2023-01-20T13:35:46.434Z,71.80
2023-01-20T13:38:19.095Z,73.37
2023-01-20T13:40:46.062Z,74.90
2023-01-20T13:43:25.659Z,75.92
2023-01-20T13:46:08.132Z,77.34
2023-01-20T13:48:37.260Z,77.66
2023-01-20T13:51:17.319Z,77.11
2023-01-20T13:53:45.654Z,78.43
2023-01-20T13:56:26.028Z,79.10
2023-01-20T13:58:56.261Z,79.20
2023-01-20T14:01:23.534Z,79.66
2023-01-20T14:04:07.383Z,80.34
2023-01-20T14:06:36.313Z,80.81
2023-01-20T14:09:04.212Z,81.17
2023-01-20T14:11:33.309Z,82.20
2023-01-20T14:14:07.663Z,82.77
2023-01-20T14:16:35.963Z,83.34
2023-01-20T14:19:23.789Z,84.27
2023-01-20T14:21:57.979Z,84.45
2023-01-20T14:24:35.459Z,84.85
2023-01-20T14:27:06.631Z,85.26
2023-01-20T14:29:33.560Z,85.66
2023-01-20T14:32:02.228Z,86.19
2023-01-20T14:34:32.909Z,86.78
2023-01-20T14:37:03.438Z,87.20
2023-01-20T14:39:32.152Z,87.65
2023-01-20T14:42:00.152Z,88.01
2023-01-20T14:44:33.562Z,88.34
2023-01-20T14:47:03.961Z,88.20
2023-01-20T14:49:35.730Z,88.76
2023-01-20T14:52:02.988Z,89.08
2023-01-20T14:54:34.259Z,89.55
2023-01-20T14:57:12.402Z,89.90
2023-01-20T14:59:40.560Z,90.02
2023-01-20T15:02:15.591Z,90.87
2023-01-20T15:04:43.691Z,91.37
2023-01-20T15:09:25.219Z,93.08
2023-01-20T15:12:14.973Z,92.44
2023-01-20T15:15:18.531Z,92.41
2023-01-20T15:18:18.496Z,92.82
2023-01-20T15:20:54.898Z,92.90
2023-01-20T15:23:29.220Z,92.99
2023-01-20T15:26:09.116Z,93.09
2023-01-20T15:28:43.135Z,92.86
2023-01-20T15:31:16.058Z,92.71
2023-01-20T15:33:44.587Z,92.54
2023-01-20T15:36:33.584Z,92.47
2023-01-20T15:39:01.210Z,92.52
2023-01-20T15:41:34.764Z,93.05
2023-01-20T15:44:02.221Z,93.16
2023-01-20T15:46:29.818Z,93.47
2023-01-20T15:48:58.242Z,93.91
2023-01-20T15:51:25.736Z,93.99
2023-01-20T15:53:59.303Z,93.77
2023-01-20T15:56:30.146Z,93.85
2023-01-20T15:58:57.984Z,94.16
2023-01-20T16:01:27.157Z,94.41
2023-01-20T16:03:57.526Z,94.78
2023-01-20T16:06:32.005Z,95.06
2023-01-20T16:09:02.119Z,95.21
2023-01-20T16:11:30.572Z,95.30
2023-01-20T16:13:58.362Z,94.97
2023-01-20T16:16:29.775Z,94.87
2023-01-20T16:18:58.143Z,95.10
2023-01-20T16:21:26.589Z,95.01
2023-01-20T16:23:53.998Z,95.08
2023-01-20T16:26:28.539Z,95.22
2023-01-20T16:28:58.256Z,95.22
2023-01-20T16:31:27.450Z,95.26
2023-01-20T16:33:57.066Z,95.33
2023-01-20T16:36:25.101Z,95.31
2023-01-20T16:38:52.636Z,95.58
2023-01-20T16:41:25.339Z,95.87
2023-01-20T16:43:55.401Z,96.01
2023-01-20T16:46:33.296Z,96.15
2023-01-20T16:49:02.334Z,96.32
2023-01-20T16:51:31.615Z,96.27
2023-01-20T16:54:00.433Z,96.93
2023-01-20T16:56:30.971Z,96.89
2023-01-20T16:59:01.950Z,97.16
2023-01-20T17:01:31.241Z,97.09
2023-01-20T17:04:01.234Z,97.33
2023-01-20T17:06:31.834Z,97.42
2023-01-20T17:09:01.883Z,97.54
2023-01-20T17:11:32.125Z,97.60
2023-01-20T17:14:02.565Z,97.83
2023-01-20T17:16:30.152Z,97.97
2023-01-20T17:18:59.831Z,98.03
2023-01-20T17:21:30.304Z,98.30
2023-01-20T17:24:01.767Z,98.79
2023-01-20T17:26:30.524Z,98.43
2023-01-20T17:29:06.174Z,98.45
2023-01-20T17:31:37.338Z,98.79
2023-01-20T17:34:05.691Z,98.94
2023-01-20T17:36:35.080Z,99.07
2023-01-20T17:39:07.041Z,99.44
2023-01-20T17:41:35.081Z,99.75
2023-01-20T17:44:05.328Z,99.85
2023-01-20T17:46:32.864Z,99.93
2023-01-20T17:49:02.285Z,100.00
2023-01-20T17:51:30.198Z,100.00
2023-01-20T17:54:03.949Z,100.00
2023-01-20T17:56:32.295Z,100.00
2023-01-20T17:59:00.336Z,100.00
2023-01-20T18:01:33.580Z,100.00
2023-01-20T18:04:01.861Z,100.00
2023-01-20T18:06:29.710Z,100.00
2023-01-20T18:09:01.557Z,100.00
2023-01-20T18:11:34.599Z,100.00
2023-01-20T18:14:04.287Z,100.00
2023-01-20T18:16:35.636Z,100.00
2023-01-20T18:19:04.468Z,100.00
2023-01-20T18:21:38.230Z,100.00
2023-01-20T18:24:08.647Z,100.00
2023-01-20T18:26:38.547Z,100.00
2023-01-20T18:29:17.388Z,100.00
2023-01-20T18:31:50.599Z,100.00
2023-01-20T18:34:21.140Z,100.00
2023-01-20T18:36:51.020Z,100.00
2023-01-20T18:39:23.465Z,100.00
2023-01-20T18:41:52.196Z,100.00
2023-01-20T18:44:21.063Z,100.00
2023-01-20T18:46:49.253Z,100.00
2023-01-20T18:49:26.183Z,100.00
2023-01-20T18:51:54.681Z,100.00
2023-01-20T18:54:22.476Z,100.00
2023-01-20T18:56:58.245Z,100.00
2023-01-20T18:59:26.578Z,100.00
2023-01-20T19:01:56.838Z,100.00
2023-01-20T19:04:25.030Z,100.00
2023-01-20T19:06:52.795Z,100.00
2023-01-20T19:09:20.243Z,100.00
2023-01-20T19:11:48.560Z,100.00
2023-01-20T19:14:16.646Z,100.00
2023-01-20T19:16:49.624Z,100.00
2023-01-20T19:19:19.821Z,100.00
2023-01-20T19:21:54.773Z,100.00
2023-01-20T19:24:23.050Z,100.00
2023-01-20T19:26:51.239Z,100.00
2023-01-20T19:29:20.422Z,100.00
2023-01-20T19:31:51.532Z,100.00
2023-01-20T19:34:19.634Z,100.00
2023-01-20T19:36:47.642Z,100.00
2023-01-20T19:39:16.311Z,100.00
2023-01-20T19:41:44.597Z,100.00
2023-01-20T19:44:13.975Z,100.00
2023-01-20T19:46:44.376Z,100.00
2023-01-20T19:49:17.385Z,100.00
2023-01-20T19:51:47.383Z,100.00
2023-01-20T19:54:15.930Z,100.00
2023-01-20T19:56:44.343Z,100.00
2023-01-20T19:59:14.937Z,100.00
2023-01-20T20:01:46.481Z,100.00
2023-01-20T20:04:24.444Z,100.00
2023-01-20T20:06:54.334Z,100.00
2023-01-20T20:09:26.292Z,100.00
2023-01-20T20:11:56.863Z,100.00
2023-01-20T20:14:27.902Z,100.00
2023-01-20T20:16:55.835Z,100.00
2023-01-20T20:19:23.794Z,100.00
2023-01-20T20:21:51.917Z,100.00
2023-01-20T20:24:21.969Z,100.00
2023-01-20T20:26:51.192Z,100.00
2023-01-20T20:29:19.852Z,100.00
2023-01-20T20:31:49.181Z,100.00
2023-01-20T20:34:19.809Z,100.00
2023-01-20T20:36:48.376Z,100.00
2023-01-20T20:39:18.978Z,100.00
2023-01-20T20:41:47.498Z,100.00
2023-01-20T20:44:17.016Z,100.00
2023-01-20T20:46:45.218Z,100.00
2023-01-20T20:49:16.431Z,100.00
2023-01-20T20:51:44.477Z,100.00
2023-01-20T20:54:26.047Z,100.00
2023-01-20T20:56:54.393Z,100.00
2023-01-20T20:59:25.643Z,100.00
2023-01-20T21:01:59.744Z,100.00
2023-01-20T21:04:30.239Z,100.00
2023-01-20T21:06:58.418Z,100.00
2023-01-20T21:09:26.930Z,100.00
2023-01-20T21:11:56.132Z,100.00
2023-01-20T21:14:30.109Z,100.00
2023-01-20T21:16:58.137Z,100.00
2023-01-20T21:19:28.580Z,100.00
2023-01-20T21:21:57.739Z,100.00
2023-01-20T21:24:31.418Z,100.00
2023-01-20T21:27:01.251Z,100.00
2023-01-20T21:29:31.174Z,100.00
2023-01-20T21:31:59.728Z,100.00
2023-01-20T21:34:27.664Z,100.00
2023-01-20T21:37:04.700Z,100.00
2023-01-20T21:39:32.525Z,100.00
2023-01-20T21:42:00.385Z,100.00
2023-01-20T21:44:32.007Z,100.00
2023-01-20T21:47:05.568Z,100.00
2023-01-20T21:49:51.580Z,100.00
2023-01-20T21:52:43.055Z,100.00
2023-01-20T21:55:19.215Z,100.00
2023-01-20T21:57:49.480Z,100.00
2023-01-20T22:00:19.121Z,100.00
2023-01-20T22:02:47.215Z,100.00
2023-01-20T22:05:15.830Z,100.00
2023-01-20T22:07:42.922Z,100.00
2023-01-20T22:10:11.764Z,100.00
2023-01-20T22:12:40.143Z,100.00
2023-01-20T22:15:08.123Z,100.00
2023-01-20T22:17:35.603Z,100.00
2023-01-20T22:20:02.993Z,100.00
2023-01-20T22:22:30.533Z,100.00
2023-01-20T22:24:57.999Z,100.00
2023-01-20T22:27:26.419Z,100.00
2023-01-20T22:29:59.970Z,100.00
2023-01-20T22:32:28.543Z,100.00
2023-01-20T22:34:56.969Z,100.00
2023-01-20T22:37:24.456Z,100.00
2023-01-20T22:39:52.012Z,100.00
2023-01-20T22:42:19.380Z,100.00
2023-01-20T22:44:46.833Z,100.00
2023-01-20T22:47:15.313Z,100.00
2023-01-20T22:49:42.856Z,100.00
2023-01-20T22:52:10.768Z,100.00
2023-01-20T22:54:38.128Z,100.00
2023-01-20T22:57:05.682Z,100.00
2023-01-20T22:59:36.122Z,100.00
2023-01-20T23:02:03.858Z,100.00
2023-01-20T23:04:31.043Z,100.00
2023-01-20T23:06:58.157Z,100.00
2023-01-20T23:09:25.527Z,100.00
2023-01-20T23:11:54.120Z,100.00
2023-01-20T23:14:42.355Z,100.00
2023-01-20T23:17:09.426Z,100.00
2023-01-20T23:19:37.821Z,100.00
2023-01-20T23:22:05.287Z,100.00
2023-01-20T23:24:33.759Z,100.00
2023-01-20T23:27:01.258Z,100.00
2023-01-20T23:29:28.722Z,100.00
2023-01-20T23:31:58.308Z,100.00
2023-01-20T23:34:25.733Z,100.00
2023-01-20T23:36:53.091Z,100.00
2023-01-20T23:39:20.599Z,100.00
2023-01-20T23:41:48.018Z,100.00
2023-01-20T23:44:15.528Z,100.00
2023-01-20T23:46:44.949Z,100.00
2023-01-20T23:49:13.463Z,100.00
2023-01-20T23:51:40.915Z,100.00
2023-01-20T23:54:13.640Z,100.00
2023-01-20T23:56:40.950Z,100.00
2023-01-20T23:59:08.443Z,100.00
